createdAt,value
2018-07-19T00:01:56.542Z,24.61
2018-07-19T00:04:24.690Z,24.61
2018-07-19T00:06:52.662Z,24.50
2018-07-19T00:09:21.004Z,24.47
2018-07-19T00:11:48.977Z,24.45
2018-07-19T00:14:17.455Z,24.53
2018-07-19T00:16:45.755Z,24.58
2018-07-19T00:19:13.702Z,24.71
2018-07-19T00:21:42.075Z,24.79
2018-07-19T00:24:10.486Z,24.61
2018-07-19T00:26:38.829Z,24.60
2018-07-19T00:29:07.405Z,24.63
2018-07-19T00:31:35.819Z,24.59
2018-07-19T00:34:04.165Z,24.62
2018-07-19T00:36:32.332Z,24.53
2018-07-19T00:39:00.849Z,24.51
2018-07-19T00:41:29.183Z,24.51
2018-07-19T00:43:57.776Z,24.48
2018-07-19T00:46:26.149Z,24.46
2018-07-19T00:48:54.534Z,24.36
2018-07-19T00:51:23.000Z,24.33
2018-07-19T00:53:51.525Z,24.30
2018-07-19T00:56:19.978Z,24.31
2018-07-19T00:58:48.249Z,24.33
2018-07-19T01:01:16.564Z,24.27
2018-07-19T01:03:44.898Z,24.21
2018-07-19T01:06:13.278Z,24.17
2018-07-19T01:08:41.670Z,24.12
2018-07-19T01:11:10.238Z,24.33
2018-07-19T01:13:38.513Z,24.29
2018-07-19T01:16:07.027Z,24.29
2018-07-19T01:18:35.265Z,24.26
2018-07-19T01:21:03.247Z,24.25
2018-07-19T01:23:31.552Z,24.34
2018-07-19T01:25:59.785Z,24.11
2018-07-19T01:28:27.842Z,24.22
2018-07-19T01:30:56.286Z,24.29
2018-07-19T01:33:24.610Z,24.06
2018-07-19T01:35:52.898Z,24.05
2018-07-19T01:38:21.274Z,24.08
2018-07-19T01:40:49.750Z,24.20
2018-07-19T01:43:18.165Z,24.14
2018-07-19T01:45:46.502Z,24.17
2018-07-19T01:48:14.877Z,24.07
2018-07-19T01:50:43.395Z,24.16
2018-07-19T01:53:11.837Z,24.15
2018-07-19T01:55:40.117Z,24.12
2018-07-19T01:58:08.493Z,24.18
2018-07-19T02:00:36.873Z,24.09
2018-07-19T02:03:05.290Z,24.13
2018-07-19T02:05:33.526Z,24.29
2018-07-19T02:08:02.015Z,24.25
2018-07-19T02:10:30.281Z,24.29
2018-07-19T02:12:58.665Z,24.31
2018-07-19T02:15:27.141Z,24.16
2018-07-19T02:17:55.455Z,24.04
2018-07-19T02:20:23.789Z,24.11
2018-07-19T02:22:51.749Z,24.02
2018-07-19T02:25:20.037Z,23.96
2018-07-19T02:27:48.318Z,24.06
2018-07-19T02:30:16.276Z,23.98
2018-07-19T02:32:44.561Z,23.88
2018-07-19T02:35:13.075Z,23.80
2018-07-19T02:37:41.411Z,23.81
2018-07-19T02:40:09.896Z,23.86
2018-07-19T02:42:38.218Z,23.87
2018-07-19T02:45:06.551Z,23.75
2018-07-19T02:47:34.791Z,23.70
2018-07-19T02:50:03.241Z,23.76
2018-07-19T02:52:31.585Z,23.97
2018-07-19T02:54:59.862Z,24.00
2018-07-19T02:57:28.229Z,24.06
2018-07-19T02:59:56.541Z,24.05
2018-07-19T03:02:24.987Z,23.97
2018-07-19T03:04:53.471Z,23.91
2018-07-19T03:07:21.781Z,24.02
2018-07-19T03:09:50.124Z,24.02
2018-07-19T03:12:18.392Z,23.93
2018-07-19T03:14:47.015Z,23.88
2018-07-19T03:17:15.354Z,23.83
2018-07-19T03:19:43.635Z,23.80
2018-07-19T03:22:12.010Z,23.78
2018-07-19T03:24:39.941Z,23.77
2018-07-19T03:27:07.836Z,23.80
2018-07-19T03:29:35.753Z,23.80
2018-07-19T03:32:03.685Z,23.78
2018-07-19T03:34:32.103Z,23.75
2018-07-19T03:37:00.442Z,23.67
2018-07-19T03:39:28.548Z,23.62
2018-07-19T03:41:56.882Z,23.57
2018-07-19T03:44:25.156Z,23.50
2018-07-19T03:46:53.541Z,23.43
2018-07-19T03:49:21.913Z,23.37
2018-07-19T03:51:50.298Z,23.45
2018-07-19T03:54:18.882Z,23.46
2018-07-19T03:56:46.851Z,23.38
2018-07-19T03:59:14.825Z,23.39
2018-07-19T04:01:42.775Z,23.54
2018-07-19T04:04:10.678Z,23.52
2018-07-19T04:06:38.590Z,23.50
2018-07-19T04:09:07.126Z,23.56
2018-07-19T04:11:35.067Z,23.62
2018-07-19T04:14:03.143Z,23.72
2018-07-19T04:16:31.197Z,23.66
2018-07-19T04:18:59.487Z,23.78
2018-07-19T04:21:27.966Z,23.77
2018-07-19T04:23:56.230Z,23.89
2018-07-19T04:26:24.609Z,23.86
2018-07-19T04:28:52.985Z,23.85
2018-07-19T04:31:20.902Z,23.82
2018-07-19T04:33:48.870Z,23.78
2018-07-19T04:36:16.789Z,23.75
2018-07-19T04:38:44.698Z,23.82
2018-07-19T04:41:13.030Z,23.98
2018-07-19T04:43:41.526Z,23.90
2018-07-19T04:46:09.459Z,24.08
2018-07-19T04:48:37.973Z,24.04
2018-07-19T04:51:06.390Z,23.94
2018-07-19T04:53:34.828Z,24.04
2018-07-19T04:56:03.200Z,24.20
2018-07-19T04:58:31.148Z,24.18
2018-07-19T05:00:59.547Z,24.16
2018-07-19T05:03:27.451Z,24.22
2018-07-19T05:05:55.349Z,24.24
2018-07-19T05:08:23.256Z,24.22
2018-07-19T05:10:51.526Z,24.31
2018-07-19T05:13:19.996Z,24.38
2018-07-19T05:15:48.273Z,24.51
2018-07-19T05:18:16.549Z,24.62
2018-07-19T05:20:44.483Z,24.58
2018-07-19T05:23:12.953Z,24.51
2018-07-19T05:43:14.256Z,24.28
2018-07-19T05:45:42.828Z,24.32
2018-07-19T05:48:11.109Z,24.36
2018-07-19T05:50:39.447Z,24.36
2018-07-19T05:53:07.664Z,24.32
2018-07-19T05:55:36.150Z,24.31
2018-07-19T05:58:04.326Z,24.49
2018-07-19T06:00:32.609Z,24.47
2018-07-19T06:03:00.865Z,24.56
2018-07-19T06:05:29.083Z,24.59
2018-07-19T06:07:57.426Z,24.66
2018-07-19T06:10:25.808Z,24.64
2018-07-19T06:12:54.281Z,24.45
2018-07-19T06:15:22.661Z,24.58
2018-07-19T06:17:51.132Z,24.76
2018-07-19T06:20:19.511Z,24.65
2018-07-19T06:22:47.995Z,24.66
2018-07-19T06:25:16.266Z,24.76
2018-07-19T06:27:44.656Z,24.82
2018-07-19T06:30:12.921Z,24.86
2018-07-19T06:32:41.306Z,24.90
2018-07-19T06:35:09.573Z,24.86
2018-07-19T06:37:38.061Z,24.79
2018-07-19T06:40:06.438Z,24.80
2018-07-19T06:42:34.913Z,24.78
2018-07-19T06:45:02.997Z,24.85
2018-07-19T06:47:31.370Z,24.89
2018-07-19T06:49:59.746Z,24.90
2018-07-19T06:52:28.125Z,24.95
2018-07-19T06:54:56.390Z,24.90
2018-07-19T06:57:24.788Z,24.96
2018-07-19T06:59:53.358Z,24.92
2018-07-19T07:02:21.625Z,24.91
2018-07-19T07:04:49.937Z,24.81
2018-07-19T07:07:18.272Z,24.88
2018-07-19T07:09:46.761Z,25.00
2018-07-19T07:12:15.125Z,24.91
2018-07-19T07:14:43.526Z,24.99
2018-07-19T07:17:11.917Z,25.02
2018-07-19T07:19:40.372Z,25.18
2018-07-19T07:22:08.655Z,25.11
2018-07-19T07:24:36.925Z,24.99
2018-07-19T07:27:05.203Z,24.91
2018-07-19T07:29:33.587Z,24.90
2018-07-19T07:32:01.957Z,24.98
2018-07-19T07:34:30.537Z,25.04
2018-07-19T07:36:58.863Z,25.06
2018-07-19T07:39:27.301Z,25.09
2018-07-19T07:41:55.769Z,25.02
2018-07-19T07:44:24.155Z,24.97
2018-07-19T07:46:52.526Z,25.09
2018-07-19T07:49:21.037Z,25.08
2018-07-19T07:51:49.588Z,25.28
2018-07-19T07:54:18.023Z,25.39
2018-07-19T07:56:46.561Z,25.43
2018-07-19T07:59:14.955Z,25.55
2018-07-19T08:01:43.200Z,25.55
2018-07-19T08:04:11.493Z,25.70
2018-07-19T08:06:39.971Z,25.73
2018-07-19T08:09:09.013Z,25.79
2018-07-19T08:11:37.386Z,25.75
2018-07-19T08:14:05.812Z,25.77
2018-07-19T08:16:34.193Z,25.90
2018-07-19T08:19:02.261Z,26.06
2018-07-19T08:21:30.857Z,26.13
2018-07-19T08:23:59.432Z,26.21
2018-07-19T08:26:27.585Z,26.37
2018-07-19T08:28:55.899Z,26.28
2018-07-19T08:31:24.362Z,26.16
2018-07-19T08:33:52.732Z,26.33
2018-07-19T08:36:21.162Z,26.46
2018-07-19T08:38:49.590Z,26.49
2018-07-19T08:41:18.070Z,26.60
2018-07-19T08:43:46.462Z,26.72
2018-07-19T08:46:14.933Z,26.82
2018-07-19T08:48:43.100Z,26.59
2018-07-19T08:51:11.700Z,26.70
2018-07-19T12:01:27.053Z,28.33
2018-07-19T12:03:55.526Z,28.39
2018-07-19T12:06:23.704Z,28.39
2018-07-19T12:08:51.985Z,28.45
2018-07-19T12:11:20.176Z,28.42
2018-07-19T12:13:48.753Z,28.32
2018-07-19T12:16:17.419Z,28.36
2018-07-19T12:18:45.681Z,28.40
2018-07-19T12:21:13.600Z,28.45
2018-07-19T12:23:41.946Z,28.45
2018-07-19T12:26:10.322Z,28.40
2018-07-19T12:28:38.503Z,28.07
2018-07-19T12:31:06.976Z,28.01
2018-07-19T12:33:35.251Z,28.03
2018-07-19T12:36:03.833Z,28.05
2018-07-19T12:38:32.201Z,28.20
2018-07-19T12:41:00.577Z,28.35
2018-07-19T12:43:28.866Z,28.37
2018-07-19T12:45:57.320Z,28.45
2018-07-19T12:48:25.609Z,28.39
2018-07-19T12:50:53.893Z,28.35
2018-07-19T12:53:22.261Z,28.45
2018-07-19T12:55:50.658Z,28.35
2018-07-19T12:58:18.930Z,28.39
2018-07-19T13:00:46.806Z,28.30
2018-07-19T13:03:15.174Z,28.36
2018-07-19T13:05:43.446Z,28.49
2018-07-19T13:08:11.823Z,28.55
2018-07-19T13:10:39.992Z,28.63
2018-07-19T13:13:08.578Z,28.59
2018-07-19T13:15:37.102Z,28.45
2018-07-19T13:18:05.443Z,28.46
2018-07-19T13:20:33.895Z,28.50
2018-07-19T13:23:02.037Z,28.45
2018-07-19T13:25:30.491Z,28.37
2018-07-19T13:27:58.950Z,28.42
2018-07-19T13:30:27.318Z,28.35
2018-07-19T13:32:55.502Z,28.31
2018-07-19T13:35:23.869Z,28.29
2018-07-19T13:37:52.149Z,28.35
2018-07-19T13:40:20.522Z,28.26
2018-07-19T13:42:48.807Z,28.30
2018-07-19T13:45:17.681Z,28.21
2018-07-19T13:47:46.073Z,28.24
2018-07-19T13:50:14.441Z,28.35
2018-07-19T13:52:53.726Z,28.56
2018-07-19T13:55:21.958Z,28.49
2018-07-19T13:57:50.337Z,28.55
2018-07-19T14:00:18.614Z,28.55
2018-07-19T14:02:47.006Z,28.55
2018-07-19T14:05:15.258Z,28.47
2018-07-19T14:07:43.541Z,28.47
2018-07-19T14:10:11.905Z,28.32
2018-07-19T14:12:40.186Z,28.34
2018-07-19T14:15:08.660Z,28.34
2018-07-19T14:17:36.942Z,28.34
2018-07-19T14:20:05.354Z,28.48
2018-07-19T14:22:33.797Z,28.47
2018-07-19T14:25:02.127Z,28.41
2018-07-19T14:27:30.462Z,28.28
2018-07-19T14:29:58.633Z,28.42
2018-07-19T14:32:26.798Z,28.35
2018-07-19T14:34:55.070Z,28.36
2018-07-19T14:37:23.560Z,28.28
2018-07-19T14:39:51.733Z,28.19
2018-07-19T14:42:20.094Z,28.41
2018-07-19T14:44:48.391Z,28.25
2018-07-19T14:47:16.427Z,27.95
2018-07-19T14:49:44.707Z,28.09
2018-07-19T14:52:13.013Z,28.24
2018-07-19T14:54:41.374Z,27.96
2018-07-19T14:57:09.562Z,27.91
2018-07-19T14:59:37.721Z,27.95
2018-07-19T15:02:05.602Z,28.02
2018-07-19T15:04:33.470Z,27.90
2018-07-19T15:07:01.729Z,27.97
2018-07-19T15:09:29.593Z,28.14
2018-07-19T15:11:57.492Z,28.37
2018-07-19T15:14:25.393Z,28.49
2018-07-19T15:16:53.647Z,28.26
2018-07-19T15:19:22.188Z,27.87
2018-07-19T15:21:50.466Z,27.76
2018-07-19T15:24:18.737Z,27.86
2018-07-19T15:26:47.022Z,27.75
2018-07-19T15:29:15.198Z,27.80
2018-07-19T15:31:43.573Z,27.77
2018-07-19T15:34:11.605Z,27.76
2018-07-19T15:36:39.881Z,27.78
2018-07-19T15:39:08.766Z,27.75
2018-07-19T15:41:37.191Z,27.84
2018-07-19T15:44:05.453Z,27.86
2018-07-19T15:46:33.737Z,27.85
2018-07-19T15:49:02.018Z,27.88
2018-07-19T15:51:30.002Z,27.80
2018-07-19T15:53:57.922Z,27.84
2018-07-19T15:56:25.833Z,27.75
2018-07-19T15:58:53.778Z,27.69
2018-07-19T16:01:22.068Z,27.64
2018-07-19T16:03:50.338Z,27.66
2018-07-19T16:06:18.709Z,27.61
2018-07-19T16:08:46.982Z,27.50
2018-07-19T16:11:15.258Z,27.49
2018-07-19T16:13:43.438Z,27.48
2018-07-19T16:16:11.706Z,27.41
2018-07-19T16:18:39.977Z,27.35
2018-07-19T16:21:08.162Z,27.45
2018-07-19T16:23:36.441Z,27.40
2018-07-19T16:26:04.939Z,27.36
2018-07-19T16:28:33.407Z,27.42
2018-07-19T16:31:01.878Z,27.49
2018-07-19T16:33:30.361Z,27.44
2018-07-19T16:35:58.539Z,27.36
2018-07-19T16:38:27.042Z,27.37
2018-07-19T16:40:55.354Z,27.15
2018-07-19T16:43:23.660Z,27.23
2018-07-19T16:45:51.942Z,27.16
2018-07-19T16:48:20.528Z,27.09
2018-07-19T16:50:48.691Z,27.09
2018-07-19T16:53:16.965Z,27.09
2018-07-19T16:55:45.039Z,27.15
2018-07-19T16:58:13.309Z,26.97
2018-07-19T17:00:41.503Z,26.84
2018-07-19T17:03:09.970Z,26.79
2018-07-19T17:05:38.350Z,26.81
2018-07-19T17:08:06.624Z,26.83
2018-07-19T17:10:34.889Z,26.51
2018-07-19T17:13:03.175Z,26.43
2018-07-19T17:15:31.354Z,26.07
2018-07-19T17:17:59.625Z,25.74
2018-07-19T17:20:27.993Z,25.70
2018-07-19T17:22:56.165Z,25.64
2018-07-19T17:25:24.352Z,25.59
2018-07-19T17:27:52.718Z,25.28
2018-07-19T17:30:20.994Z,25.01
2018-07-19T17:32:48.900Z,24.78
2018-07-19T17:35:17.239Z,24.35
2018-07-19T17:37:45.522Z,24.07
2018-07-19T17:40:13.889Z,24.02
2018-07-19T17:42:42.165Z,24.20
2018-07-19T17:45:10.542Z,24.19
2018-07-19T17:47:38.917Z,24.18
2018-07-19T17:50:07.461Z,24.12
2018-07-19T17:52:35.882Z,24.26
2018-07-19T17:55:04.157Z,24.20
2018-07-19T17:57:32.070Z,24.27
2018-07-19T18:00:00.502Z,24.26
2018-07-19T18:02:28.989Z,24.31
2018-07-19T18:04:57.158Z,24.27
2018-07-19T18:07:25.429Z,24.37
2018-07-19T18:09:53.704Z,24.40
2018-07-19T18:12:22.086Z,24.29
2018-07-19T18:14:50.352Z,24.34
2018-07-19T18:17:18.747Z,24.45
2018-07-19T18:19:46.919Z,24.39
2018-07-19T18:22:15.284Z,24.32
2018-07-19T18:24:43.622Z,24.31
2018-07-19T18:27:12.041Z,24.11
2018-07-19T18:29:40.338Z,24.04
2018-07-19T18:32:08.821Z,24.19
2018-07-19T18:34:37.186Z,24.25
2018-07-19T18:37:05.549Z,24.27
2018-07-19T18:39:33.829Z,24.31
2018-07-19T18:42:02.018Z,24.36
2018-07-19T18:44:30.389Z,24.30
2018-07-19T18:46:58.753Z,24.25
2018-07-19T18:49:26.933Z,24.36
2018-07-19T18:51:55.106Z,24.39
2018-07-19T18:54:23.494Z,24.37
2018-07-19T18:56:51.654Z,24.40
2018-07-19T18:59:20.146Z,24.29
2018-07-19T19:01:48.214Z,24.45
2018-07-19T19:04:16.481Z,24.49
2018-07-19T19:06:44.479Z,24.59
2018-07-19T19:09:12.727Z,24.37
2018-07-19T19:11:41.010Z,24.28
2018-07-19T19:14:09.494Z,24.35
2018-07-19T19:16:37.770Z,24.38
2018-07-19T19:19:06.245Z,24.38
2018-07-19T19:21:34.546Z,24.33
2018-07-19T19:24:02.898Z,24.37
2018-07-19T19:26:31.173Z,24.34
2018-07-19T19:28:59.098Z,24.35
2018-07-19T19:31:27.412Z,24.32
2018-07-19T19:33:55.686Z,24.26
2018-07-19T19:36:23.742Z,24.21
2018-07-19T19:38:52.149Z,24.25
2018-07-19T19:41:20.634Z,24.36
2018-07-19T19:43:49.103Z,24.36
2018-07-19T19:46:17.478Z,24.36
2018-07-19T19:48:45.864Z,24.28
2018-07-19T19:51:14.343Z,24.37
2018-07-19T19:53:42.704Z,24.32
2018-07-19T19:56:11.005Z,24.26
2018-07-19T19:58:39.259Z,24.22
2018-07-19T20:01:07.289Z,24.30
2018-07-19T20:03:35.627Z,24.22
2018-07-19T20:06:04.094Z,24.07
2018-07-19T20:08:32.482Z,24.19
2018-07-19T20:11:00.778Z,24.24
2018-07-19T20:13:29.335Z,24.22
2018-07-19T20:15:57.913Z,24.23
2018-07-19T20:18:26.242Z,24.24
2018-07-19T20:20:54.769Z,24.14
2018-07-19T20:23:23.170Z,24.17
2018-07-19T20:25:51.525Z,24.19
2018-07-19T20:28:20.254Z,24.34
2018-07-19T20:30:48.853Z,24.32
2018-07-19T20:33:17.487Z,24.34
2018-07-19T20:35:46.295Z,24.18
2018-07-19T20:38:14.783Z,24.11
2018-07-19T20:40:43.496Z,24.05
2018-07-19T20:43:12.195Z,24.17
2018-07-19T20:45:40.928Z,24.22
2018-07-19T20:48:09.774Z,24.16
2018-07-19T20:50:38.229Z,24.22
2018-07-19T20:53:06.810Z,24.13
2018-07-19T20:55:35.583Z,24.03
2018-07-19T20:58:04.254Z,23.98
2018-07-19T21:00:32.760Z,23.94
2018-07-19T21:03:01.415Z,24.03
2018-07-19T21:05:30.206Z,24.06
2018-07-19T21:07:58.813Z,24.07
2018-07-19T21:10:27.473Z,24.08
2018-07-19T21:12:56.254Z,24.07
2018-07-19T21:15:24.785Z,24.04
2018-07-19T21:17:53.448Z,23.97
2018-07-19T21:20:22.173Z,23.95
2018-07-19T21:22:50.726Z,24.05
2018-07-19T21:25:19.384Z,23.91
2018-07-19T21:27:48.082Z,23.96
2018-07-19T21:30:16.528Z,24.16
2018-07-19T21:32:45.095Z,24.02
2018-07-19T21:35:13.487Z,23.92
2018-07-19T21:37:41.649Z,23.96
2018-07-19T21:40:09.560Z,23.94
2018-07-19T21:42:37.898Z,23.90
2018-07-19T21:45:06.266Z,23.89
2018-07-19T21:47:34.314Z,23.87
2018-07-19T21:50:02.731Z,23.86
2018-07-19T21:52:30.989Z,23.79
2018-07-19T21:54:59.274Z,23.76
2018-07-19T21:57:28.461Z,23.81
2018-07-19T21:59:56.738Z,23.84
2018-07-19T22:02:25.018Z,23.75
2018-07-19T22:04:53.390Z,23.76
2018-07-19T22:07:21.766Z,23.79
2018-07-19T22:09:50.050Z,23.79
2018-07-19T22:12:18.393Z,23.74
2018-07-19T22:14:46.692Z,23.81
2018-07-19T22:17:15.087Z,23.89
2018-07-19T22:19:43.350Z,23.92
2018-07-19T22:22:11.529Z,23.86
2018-07-19T22:24:39.802Z,23.81
2018-07-19T22:27:08.085Z,23.91
2018-07-19T22:29:36.358Z,23.84
2018-07-19T22:32:04.730Z,23.84
2018-07-19T22:34:33.097Z,23.85
2018-07-19T22:37:01.388Z,23.90
2018-07-19T22:39:29.653Z,23.80
2018-07-19T22:41:57.698Z,23.77
2018-07-19T22:44:25.907Z,23.85
2018-07-19T22:46:54.264Z,23.80
2018-07-19T22:49:22.566Z,23.89
2018-07-19T22:51:50.930Z,23.76
2018-07-19T22:54:19.222Z,23.77
2018-07-19T22:56:47.581Z,23.66
2018-07-19T22:59:15.957Z,23.65
2018-07-19T23:01:44.229Z,23.62
2018-07-19T23:04:12.517Z,23.63
2018-07-19T23:06:40.785Z,23.74
2018-07-19T23:09:09.380Z,23.70
2018-07-19T23:11:37.646Z,23.72
2018-07-19T23:14:05.554Z,23.74
2018-07-19T23:16:33.889Z,23.85
2018-07-19T23:19:02.157Z,23.77
2018-07-19T23:21:30.437Z,23.78
2018-07-19T23:23:58.721Z,23.76
2018-07-19T23:26:27.084Z,23.83
2018-07-19T23:28:55.672Z,23.70
2018-07-19T23:31:24.050Z,23.75
2018-07-19T23:33:52.438Z,23.81
2018-07-19T23:36:24.029Z,23.81
2018-07-19T23:38:58.822Z,23.74
2018-07-19T23:41:35.468Z,23.83
2018-07-19T23:44:08.070Z,23.88
2018-07-19T23:46:40.738Z,23.94
2018-07-19T23:49:09.013Z,23.97
2018-07-19T23:51:38.162Z,23.97
2018-07-19T23:54:06.590Z,23.90
2018-07-19T23:56:35.173Z,23.98
2018-07-19T23:59:03.741Z,23.99
